createdAt,value
2018-03-27T00:02:04.741Z,9.35
2018-03-27T00:07:07.985Z,9.52
2018-03-27T00:12:12.068Z,9.18
2018-03-27T00:17:15.320Z,10.10
2018-03-27T00:22:18.842Z,9.40
2018-03-27T00:27:34.196Z,9.98
2018-03-27T00:32:48.855Z,9.07
2018-03-27T00:38:03.410Z,8.70
2018-03-27T00:43:15.776Z,10.07
2018-03-27T00:48:18.566Z,9.75
2018-03-27T00:53:21.495Z,10.00
2018-03-27T00:58:24.442Z,9.13
2018-03-27T01:03:27.184Z,9.93
2018-03-27T01:08:30.500Z,8.85
2018-03-27T01:13:33.556Z,9.00
2018-03-27T01:18:37.027Z,9.10
2018-03-27T01:23:39.855Z,9.10
2018-03-27T01:28:43.404Z,9.38
2018-03-27T01:33:46.445Z,9.73
2018-03-27T01:38:50.498Z,10.15
2018-03-27T01:43:53.311Z,9.65
2018-03-27T01:48:56.337Z,11.50
2018-03-27T01:53:59.111Z,10.00
2018-03-27T01:59:01.941Z,9.07
2018-03-27T02:04:05.648Z,10.00
2018-03-27T02:09:08.858Z,10.60
2018-03-27T02:14:17.897Z,8.80
2018-03-27T02:19:26.471Z,10.50
2018-03-27T02:24:30.975Z,9.53
2018-03-27T02:29:33.777Z,9.57
2018-03-27T02:34:36.577Z,10.40
2018-03-27T02:39:39.326Z,9.77
2018-03-27T02:44:42.886Z,9.02
2018-03-27T02:49:46.409Z,9.77
2018-03-27T02:54:50.027Z,10.02
2018-03-27T02:59:54.330Z,10.20
2018-03-27T03:04:58.200Z,10.00
2018-03-27T03:10:01.077Z,9.00
2018-03-27T03:15:03.877Z,9.73
2018-03-27T03:20:06.666Z,9.70
2018-03-27T03:25:09.412Z,9.50
2018-03-27T03:30:12.207Z,10.48
2018-03-27T03:35:14.985Z,10.02
2018-03-27T03:40:17.741Z,8.90
2018-03-27T03:45:20.518Z,9.50
2018-03-27T03:50:24.033Z,9.65
2018-03-27T03:55:27.578Z,9.27
2018-03-27T04:00:30.355Z,10.00
2018-03-27T04:05:33.884Z,9.82
2018-03-27T04:10:36.677Z,10.70
2018-03-27T04:15:39.984Z,10.57
2018-03-27T04:20:43.520Z,10.55
2018-03-27T04:25:46.282Z,11.27
2018-03-27T04:30:49.821Z,12.02
2018-03-27T04:35:52.862Z,10.60
2018-03-27T04:40:55.768Z,9.77
2018-03-27T04:45:58.576Z,12.43
2018-03-27T04:51:01.382Z,11.05
2018-03-27T04:56:04.167Z,10.50
2018-03-27T05:01:06.931Z,10.63
2018-03-27T05:06:09.733Z,9.20
2018-03-27T05:11:12.503Z,10.20
2018-03-27T05:16:17.182Z,12.10
2018-03-27T05:21:19.946Z,12.70
2018-03-27T05:26:23.517Z,12.02
2018-03-27T05:31:26.283Z,13.90
2018-03-27T05:36:29.055Z,15.80
2018-03-27T05:41:32.691Z,17.35
2018-03-27T05:46:35.533Z,17.70
2018-03-27T05:51:38.372Z,18.67
2018-03-27T05:56:41.917Z,17.35
2018-03-27T06:01:44.714Z,18.00
2018-03-27T06:06:47.515Z,17.37
2018-03-27T06:11:50.377Z,15.73
2018-03-27T06:16:53.452Z,16.37
2018-03-27T06:21:56.216Z,16.70
2018-03-27T06:26:58.988Z,17.75
2018-03-27T06:32:02.512Z,22.33
2018-03-27T06:37:05.268Z,19.48
2018-03-27T06:42:08.103Z,18.33
2018-03-27T06:47:10.853Z,17.23
2018-03-27T06:52:13.668Z,17.10
2018-03-27T06:57:16.481Z,19.45
2018-03-27T07:02:19.275Z,22.00
2018-03-27T07:07:22.040Z,23.33
2018-03-27T07:12:25.152Z,20.83
2018-03-27T07:17:27.969Z,22.87
2018-03-27T07:22:30.725Z,22.57
2018-03-27T07:27:33.509Z,23.15
2018-03-27T07:32:36.271Z,23.80
2018-03-27T07:37:39.059Z,22.95
2018-03-27T07:42:42.155Z,23.60
2018-03-27T07:47:44.915Z,23.05
2018-03-27T07:52:47.958Z,22.27
2018-03-27T07:57:50.985Z,22.62
2018-03-27T08:02:53.754Z,22.77
2018-03-27T08:07:56.832Z,23.75
2018-03-27T08:12:59.672Z,21.57
2018-03-27T08:18:03.281Z,22.40
2018-03-27T08:23:06.151Z,22.30
2018-03-27T08:28:09.012Z,23.93
2018-03-27T08:33:11.795Z,25.17
2018-03-27T08:38:15.565Z,22.60
2018-03-27T08:43:19.933Z,19.17
2018-03-27T08:48:22.760Z,21.37
2018-03-27T08:53:26.344Z,19.73
2018-03-27T08:58:29.263Z,17.93
2018-03-27T09:03:32.062Z,17.27
2018-03-27T09:08:35.155Z,18.10
2018-03-27T09:13:38.261Z,16.73
2018-03-27T09:18:41.313Z,16.10
2018-03-27T09:23:44.380Z,14.10
2018-03-27T09:28:47.296Z,15.97
2018-03-27T09:33:51.258Z,17.20
2018-03-27T09:38:54.072Z,14.90
2018-03-27T09:43:57.114Z,13.30
2018-03-27T09:49:00.009Z,14.10
2018-03-27T09:54:02.817Z,14.18
2018-03-27T09:59:05.675Z,14.80
2018-03-27T10:04:08.825Z,13.95
2018-03-27T10:09:12.419Z,15.33
2018-03-27T10:14:15.292Z,13.80
2018-03-27T10:19:18.097Z,13.90
2018-03-27T10:24:20.914Z,13.83
2018-03-27T10:29:23.923Z,14.52
2018-03-27T10:34:26.717Z,16.77
2018-03-27T10:39:29.501Z,17.62
2018-03-27T10:44:32.308Z,20.00
2018-03-27T10:49:35.347Z,20.77
2018-03-27T10:54:38.269Z,20.70
2018-03-27T10:59:41.061Z,20.65
2018-03-27T11:04:43.903Z,20.45
2018-03-27T11:09:46.706Z,21.17
2018-03-27T11:14:49.928Z,21.43
2018-03-27T11:19:53.354Z,21.80
2018-03-27T11:24:56.345Z,22.40
2018-03-27T11:29:59.439Z,23.10
2018-03-27T11:35:02.675Z,21.60
2018-03-27T11:40:06.005Z,20.80
2018-03-27T11:45:09.088Z,19.00
2018-03-27T11:50:11.930Z,18.73
2018-03-27T11:55:15.486Z,18.10
2018-03-27T12:00:18.283Z,17.85
2018-03-27T12:05:21.082Z,18.30
2018-03-27T12:10:24.177Z,18.62
2018-03-27T12:15:27.000Z,20.58
2018-03-27T12:20:29.820Z,18.53
2018-03-27T12:25:32.686Z,19.03
2018-03-27T12:30:35.568Z,18.50
2018-03-27T12:35:38.393Z,18.73
2018-03-27T12:40:41.303Z,18.90
2018-03-27T12:45:44.111Z,18.65
2018-03-27T12:50:46.961Z,19.05
2018-03-27T12:55:50.583Z,18.65
2018-03-27T13:00:54.234Z,18.15
2018-03-27T13:05:57.855Z,17.50
2018-03-27T13:11:00.734Z,17.27
2018-03-27T13:16:03.620Z,17.60
2018-03-27T13:21:07.356Z,18.62
2018-03-27T13:26:10.273Z,18.65
2018-03-27T13:31:13.102Z,18.20
2018-03-27T13:36:16.014Z,17.67
2018-03-27T13:41:18.962Z,18.42
2018-03-27T13:46:21.936Z,17.80
2018-03-27T13:51:25.604Z,17.30
2018-03-27T13:56:28.462Z,17.23
2018-03-27T14:01:32.643Z,18.20
2018-03-27T14:06:36.916Z,19.20
2018-03-27T14:11:39.727Z,19.20
2018-03-27T14:16:43.585Z,18.60
2018-03-27T14:21:46.742Z,18.08
2018-03-27T14:26:50.679Z,18.45
2018-03-27T14:31:55.142Z,18.27
2018-03-27T14:36:58.689Z,18.83
2018-03-27T14:42:01.502Z,19.37
2018-03-27T14:47:04.349Z,18.60
2018-03-27T14:52:07.948Z,17.30
2018-03-27T14:57:11.686Z,18.58
2018-03-27T15:02:15.340Z,20.27
2018-03-27T15:07:18.230Z,20.35
2018-03-27T15:12:21.099Z,19.10
2018-03-27T15:17:24.752Z,20.33
2018-03-27T15:22:27.601Z,21.50
2018-03-27T15:27:30.418Z,20.67
2018-03-27T15:32:34.024Z,20.40
2018-03-27T15:37:37.679Z,20.47
2018-03-27T15:42:40.469Z,19.80
2018-03-27T15:47:44.090Z,19.95
2018-03-27T15:52:47.690Z,21.00
2018-03-27T15:57:51.275Z,18.77
2018-03-27T16:02:54.070Z,20.33
2018-03-27T16:07:56.888Z,20.75
2018-03-27T16:12:59.996Z,29.42
2018-03-27T16:18:03.575Z,19.48
2018-03-27T16:23:06.381Z,26.33
2018-03-27T16:28:09.177Z,25.48
2018-03-27T16:33:12.146Z,28.20
2018-03-27T16:38:15.037Z,27.65
2018-03-27T16:43:18.646Z,27.70
2018-03-27T16:48:21.465Z,27.20
2018-03-27T16:53:25.226Z,26.37
2018-03-27T16:58:28.417Z,27.33
2018-03-27T17:03:31.454Z,27.58
2018-03-27T17:08:34.248Z,27.95
2018-03-27T17:13:37.242Z,27.70
2018-03-27T17:18:40.071Z,25.70
2018-03-27T17:23:43.319Z,25.20
2018-03-27T17:28:46.200Z,26.05
2018-03-27T17:33:49.025Z,25.02
2018-03-27T17:38:51.810Z,25.75
2018-03-27T17:43:55.348Z,28.45
2018-03-27T17:48:58.110Z,27.15
2018-03-27T17:54:03.208Z,24.60
2018-03-27T17:59:06.052Z,27.77
2018-03-27T18:04:08.870Z,27.95
2018-03-27T18:09:12.469Z,27.42
2018-03-27T18:14:15.257Z,26.58
2018-03-27T18:19:18.097Z,27.45
2018-03-27T18:24:21.661Z,27.70
2018-03-27T18:29:24.496Z,26.85
2018-03-27T18:34:28.068Z,26.92
2018-03-27T18:39:30.895Z,29.85
2018-03-27T18:44:33.730Z,27.73
2018-03-27T18:49:36.668Z,26.30
2018-03-27T18:54:40.428Z,27.20
2018-03-27T18:59:43.230Z,26.30
2018-03-27T19:04:46.551Z,25.30
2018-03-27T19:09:49.473Z,26.52
2018-03-27T19:14:53.295Z,25.35
2018-03-27T19:19:56.075Z,26.30
2018-03-27T19:24:59.700Z,25.40
2018-03-27T19:30:03.505Z,24.60
2018-03-27T19:35:06.396Z,25.27
2018-03-27T19:40:09.290Z,26.37
2018-03-27T19:45:13.080Z,26.40
2018-03-27T19:50:21.033Z,25.83
2018-03-27T19:55:23.933Z,28.40
2018-03-27T20:00:28.009Z,26.98
2018-03-27T20:05:30.792Z,27.70
2018-03-27T20:10:34.342Z,29.00
2018-03-27T20:15:41.706Z,27.75
2018-03-27T20:20:40.485Z,31.15
2018-03-27T20:25:43.613Z,29.65
2018-03-27T20:30:46.526Z,30.53
2018-03-27T20:35:50.408Z,31.37
2018-03-27T20:40:53.211Z,32.20
2018-03-27T20:45:56.054Z,30.00
2018-03-27T20:50:59.649Z,34.28
2018-03-27T20:56:02.549Z,33.00
2018-03-27T21:01:05.376Z,35.57
2018-03-27T21:06:08.198Z,34.92
2018-03-27T21:11:11.280Z,34.40
2018-03-27T21:16:14.185Z,35.60
2018-03-27T21:21:17.804Z,34.00
2018-03-27T21:26:30.303Z,33.20
2018-03-27T21:31:33.326Z,35.07
2018-03-27T21:36:37.955Z,35.35
2018-03-27T21:41:41.592Z,33.43
2018-03-27T21:46:45.236Z,37.00
2018-03-27T21:51:48.753Z,37.25
2018-03-27T21:56:51.988Z,35.77
2018-03-27T22:01:54.850Z,36.67
2018-03-27T22:06:58.056Z,35.33
2018-03-27T22:12:01.001Z,34.83
2018-03-27T22:17:03.893Z,32.80
2018-03-27T22:22:06.744Z,31.90
2018-03-27T22:27:09.840Z,31.92
2018-03-27T22:32:14.547Z,32.23
2018-03-27T22:37:18.284Z,31.33
2018-03-27T22:42:21.402Z,31.98
2018-03-27T22:47:24.316Z,28.83
2018-03-27T22:52:27.883Z,29.77
2018-03-27T22:57:31.408Z,29.42
2018-03-27T23:02:34.180Z,28.55
2018-03-27T23:07:36.970Z,29.90
2018-03-27T23:12:39.736Z,28.62
2018-03-27T23:17:43.694Z,31.75
2018-03-27T23:22:47.361Z,29.20
2018-03-27T23:27:51.656Z,30.10
2018-03-27T23:32:55.381Z,30.50
2018-03-27T23:37:58.528Z,31.00
2018-03-27T23:43:01.888Z,31.40
2018-03-27T23:48:04.899Z,31.27
2018-03-27T23:53:08.501Z,32.50
2018-03-27T23:58:11.293Z,31.15
